sensor_id;sensor_type;location;lat;lon;timestamp;P1;durP1;ratioP1;P2;durP2;ratioP2
71759;SDS011;59919;48.112;16.280;2023-04-06T00:00:52;1.73;;;1.60;;
71759;SDS011;59919;48.112;16.280;2023-04-06T00:03:23;2.58;;;1.85;;
71759;SDS011;59919;48.112;16.280;2023-04-06T00:05:57;2.65;;;1.83;;
71759;SDS011;59919;48.112;16.280;2023-04-06T00:08:28;3.38;;;2.00;;
71759;SDS011;59919;48.112;16.280;2023-04-06T00:11:00;2.63;;;1.90;;
71759;SDS011;59919;48.112;16.280;2023-04-06T00:13:32;3.28;;;1.73;;
71759;SDS011;59919;48.112;16.280;2023-04-06T00:16:03;2.17;;;1.67;;
71759;SDS011;59919;48.112;16.280;2023-04-06T00:18:37;2.13;;;1.58;;
71759;SDS011;59919;48.112;16.280;2023-04-06T00:21:12;1.83;;;1.70;;
71759;SDS011;59919;48.112;16.280;2023-04-06T00:23:47;2.42;;;1.90;;
71759;SDS011;59919;48.112;16.280;2023-04-06T00:26:22;2.88;;;2.00;;
71759;SDS011;59919;48.112;16.280;2023-04-06T00:29:04;1.88;;;1.63;;
71759;SDS011;59919;48.112;16.280;2023-04-06T00:31:35;2.85;;;1.73;;
71759;SDS011;59919;48.112;16.280;2023-04-06T00:34:09;2.13;;;1.83;;
71759;SDS011;59919;48.112;16.280;2023-04-06T00:36:42;1.67;;;1.45;;
71759;SDS011;59919;48.112;16.280;2023-04-06T00:39:21;2.30;;;1.77;;
71759;SDS011;59919;48.112;16.280;2023-04-06T00:41:52;2.20;;;1.70;;
71759;SDS011;59919;48.112;16.280;2023-04-06T00:44:27;2.28;;;1.60;;
71759;SDS011;59919;48.112;16.280;2023-04-06T00:46:58;2.13;;;1.70;;
71759;SDS011;59919;48.112;16.280;2023-04-06T00:49:32;1.80;;;1.65;;
71759;SDS011;59919;48.112;16.280;2023-04-06T00:52:03;2.20;;;1.70;;
71759;SDS011;59919;48.112;16.280;2023-04-06T00:54:35;2.10;;;1.80;;
71759;SDS011;59919;48.112;16.280;2023-04-06T00:57:06;2.05;;;1.73;;
71759;SDS011;59919;48.112;16.280;2023-04-06T00:59:37;2.35;;;1.95;;
71759;SDS011;59919;48.112;16.280;2023-04-06T01:02:11;3.58;;;2.05;;
71759;SDS011;59919;48.112;16.280;2023-04-06T01:04:42;1.92;;;1.65;;
71759;SDS011;59919;48.112;16.280;2023-04-06T01:07:16;1.90;;;1.73;;
71759;SDS011;59919;48.112;16.280;2023-04-06T01:09:49;2.00;;;1.60;;
71759;SDS011;59919;48.112;16.280;2023-04-06T01:12:20;2.58;;;1.88;;
71759;SDS011;59919;48.112;16.280;2023-04-06T01:14:54;1.80;;;1.65;;
71759;SDS011;59919;48.112;16.280;2023-04-06T01:17:28;2.03;;;1.70;;
71759;SDS011;59919;48.112;16.280;2023-04-06T01:20:05;2.22;;;1.83;;
71759;SDS011;59919;48.112;16.280;2023-04-06T01:22:37;2.42;;;1.90;;
71759;SDS011;59919;48.112;16.280;2023-04-06T01:25:16;2.00;;;1.80;;
71759;SDS011;59919;48.112;16.280;2023-04-06T01:27:47;1.80;;;1.50;;
71759;SDS011;59919;48.112;16.280;2023-04-06T01:30:18;1.92;;;1.60;;
71759;SDS011;59919;48.112;16.280;2023-04-06T01:32:52;2.45;;;1.80;;
71759;SDS011;59919;48.112;16.280;2023-04-06T01:35:23;2.97;;;1.88;;
71759;SDS011;59919;48.112;16.280;2023-04-06T01:37:56;2.40;;;1.60;;
71759;SDS011;59919;48.112;16.280;2023-04-06T01:40:30;2.47;;;1.90;;
71759;SDS011;59919;48.112;16.280;2023-04-06T01:43:01;2.38;;;1.90;;
71759;SDS011;59919;48.112;16.280;2023-04-06T01:45:32;2.45;;;1.88;;
71759;SDS011;59919;48.112;16.280;2023-04-06T01:48:07;2.10;;;1.80;;
71759;SDS011;59919;48.112;16.280;2023-04-06T01:50:39;3.15;;;2.17;;
71759;SDS011;59919;48.112;16.280;2023-04-06T01:53:10;2.90;;;1.75;;
71759;SDS011;59919;48.112;16.280;2023-04-06T01:55:41;2.00;;;1.70;;
71759;SDS011;59919;48.112;16.280;2023-04-06T01:58:12;2.28;;;1.77;;
71759;SDS011;59919;48.112;16.280;2023-04-06T02:00:46;2.17;;;1.88;;
71759;SDS011;59919;48.112;16.280;2023-04-06T02:03:19;2.58;;;1.85;;
71759;SDS011;59919;48.112;16.280;2023-04-06T02:05:51;2.28;;;1.90;;
71759;SDS011;59919;48.112;16.280;2023-04-06T02:08:28;2.47;;;1.90;;
71759;SDS011;59919;48.112;16.280;2023-04-06T02:10:59;2.50;;;1.90;;
71759;SDS011;59919;48.112;16.280;2023-04-06T02:13:38;3.00;;;1.90;;
71759;SDS011;59919;48.112;16.280;2023-04-06T02:16:11;2.80;;;1.75;;
71759;SDS011;59919;48.112;16.280;2023-04-06T02:18:47;1.95;;;1.65;;
71759;SDS011;59919;48.112;16.280;2023-04-06T02:21:18;2.70;;;1.88;;
71759;SDS011;59919;48.112;16.280;2023-04-06T02:23:50;2.58;;;1.70;;
71759;SDS011;59919;48.112;16.280;2023-04-06T02:26:21;2.30;;;1.77;;
71759;SDS011;59919;48.112;16.280;2023-04-06T02:28:55;3.42;;;2.03;;
71759;SDS011;59919;48.112;16.280;2023-04-06T02:31:32;2.10;;;1.75;;
71759;SDS011;59919;48.112;16.280;2023-04-06T02:34:03;2.90;;;1.73;;
71759;SDS011;59919;48.112;16.280;2023-04-06T02:36:45;1.73;;;1.58;;
71759;SDS011;59919;48.112;16.280;2023-04-06T02:39:19;1.80;;;1.60;;
71759;SDS011;59919;48.112;16.280;2023-04-06T02:41:53;2.83;;;1.85;;
71759;SDS011;59919;48.112;16.280;2023-04-06T02:44:29;2.15;;;1.85;;
71759;SDS011;59919;48.112;16.280;2023-04-06T02:47:04;2.10;;;1.90;;
71759;SDS011;59919;48.112;16.280;2023-04-06T02:49:43;2.30;;;1.90;;
71759;SDS011;59919;48.112;16.280;2023-04-06T02:52:14;2.08;;;1.88;;
71759;SDS011;59919;48.112;16.280;2023-04-06T02:54:48;2.45;;;1.83;;
71759;SDS011;59919;48.112;16.280;2023-04-06T02:57:22;1.85;;;1.70;;
71759;SDS011;59919;48.112;16.280;2023-04-06T02:59:53;2.17;;;1.80;;
71759;SDS011;59919;48.112;16.280;2023-04-06T03:02:26;2.00;;;1.63;;
71759;SDS011;59919;48.112;16.280;2023-04-06T03:04:57;2.35;;;1.85;;
71759;SDS011;59919;48.112;16.280;2023-04-06T03:07:34;2.05;;;1.80;;
71759;SDS011;59919;48.112;16.280;2023-04-06T03:10:05;2.75;;;1.80;;
71759;SDS011;59919;48.112;16.280;2023-04-06T03:12:36;2.88;;;2.03;;
71759;SDS011;59919;48.112;16.280;2023-04-06T03:15:08;2.90;;;2.03;;
71759;SDS011;59919;48.112;16.280;2023-04-06T03:17:44;2.00;;;1.75;;
71759;SDS011;59919;48.112;16.280;2023-04-06T03:20:21;2.07;;;1.80;;
71759;SDS011;59919;48.112;16.280;2023-04-06T03:22:57;2.15;;;1.77;;
71759;SDS011;59919;48.112;16.280;2023-04-06T03:25:34;2.63;;;1.95;;
71759;SDS011;59919;48.112;16.280;2023-04-06T03:28:05;2.80;;;2.00;;
71759;SDS011;59919;48.112;16.280;2023-04-06T03:30:36;2.47;;;2.00;;
71759;SDS011;59919;48.112;16.280;2023-04-06T03:33:10;2.17;;;1.80;;
71759;SDS011;59919;48.112;16.280;2023-04-06T03:35:42;2.45;;;1.98;;
71759;SDS011;59919;48.112;16.280;2023-04-06T03:38:16;2.00;;;1.75;;
71759;SDS011;59919;48.112;16.280;2023-04-06T03:40:47;2.38;;;1.98;;
71759;SDS011;59919;48.112;16.280;2023-04-06T03:43:18;1.48;;;1.38;;
71759;SDS011;59919;48.112;16.280;2023-04-06T03:45:54;2.00;;;1.60;;
71759;SDS011;59919;48.112;16.280;2023-04-06T03:48:27;2.03;;;1.73;;
71759;SDS011;59919;48.112;16.280;2023-04-06T03:50:58;2.20;;;2.00;;
71759;SDS011;59919;48.112;16.280;2023-04-06T03:53:33;2.72;;;2.00;;
71759;SDS011;59919;48.112;16.280;2023-04-06T03:56:04;2.10;;;1.83;;
71759;SDS011;59919;48.112;16.280;2023-04-06T03:58:35;2.58;;;1.77;;
71759;SDS011;59919;48.112;16.280;2023-04-06T04:01:14;2.20;;;1.67;;
71759;SDS011;59919;48.112;16.280;2023-04-06T04:03:50;2.90;;;2.03;;
71759;SDS011;59919;48.112;16.280;2023-04-06T04:06:21;2.25;;;2.00;;
71759;SDS011;59919;48.112;16.280;2023-04-06T04:08:56;2.65;;;1.95;;
71759;SDS011;59919;48.112;16.280;2023-04-06T04:11:29;3.47;;;2.10;;
71759;SDS011;59919;48.112;16.280;2023-04-06T04:14:02;2.90;;;2.00;;
71759;SDS011;59919;48.112;16.280;2023-04-06T04:16:39;2.10;;;1.90;;
71759;SDS011;59919;48.112;16.280;2023-04-06T04:19:14;1.75;;;1.40;;
71759;SDS011;59919;48.112;16.280;2023-04-06T04:21:45;2.13;;;1.73;;
71759;SDS011;59919;48.112;16.280;2023-04-06T04:24:21;2.30;;;1.70;;
71759;SDS011;59919;48.112;16.280;2023-04-06T04:26:52;2.25;;;2.03;;
71759;SDS011;59919;48.112;16.280;2023-04-06T04:29:27;2.15;;;1.83;;
71759;SDS011;59919;48.112;16.280;2023-04-06T04:31:58;2.45;;;2.10;;
71759;SDS011;59919;48.112;16.280;2023-04-06T04:34:31;3.25;;;2.30;;
71759;SDS011;59919;48.112;16.280;2023-04-06T04:37:10;2.33;;;2.05;;
71759;SDS011;59919;48.112;16.280;2023-04-06T04:39:46;2.60;;;1.90;;
71759;SDS011;59919;48.112;16.280;2023-04-06T04:42:20;2.50;;;1.90;;
71759;SDS011;59919;48.112;16.280;2023-04-06T04:44:51;2.30;;;2.00;;
71759;SDS011;59919;48.112;16.280;2023-04-06T04:47:25;3.13;;;1.95;;
71759;SDS011;59919;48.112;16.280;2023-04-06T04:49:56;3.53;;;2.10;;
71759;SDS011;59919;48.112;16.280;2023-04-06T04:52:27;2.00;;;1.90;;
71759;SDS011;59919;48.112;16.280;2023-04-06T04:55:00;2.33;;;1.90;;
71759;SDS011;59919;48.112;16.280;2023-04-06T04:57:34;2.15;;;1.95;;
71759;SDS011;59919;48.112;16.280;2023-04-06T05:00:08;2.88;;;2.20;;
71759;SDS011;59919;48.112;16.280;2023-04-06T05:02:39;2.03;;;1.70;;
71759;SDS011;59919;48.112;16.280;2023-04-06T05:05:13;2.28;;;1.98;;
71759;SDS011;59919;48.112;16.280;2023-04-06T05:07:45;2.67;;;2.00;;
71759;SDS011;59919;48.112;16.280;2023-04-06T05:10:16;2.67;;;2.10;;
71759;SDS011;59919;48.112;16.280;2023-04-06T05:12:47;2.13;;;1.75;;
71759;SDS011;59919;48.112;16.280;2023-04-06T05:15:21;4.10;;;2.10;;
71759;SDS011;59919;48.112;16.280;2023-04-06T05:17:55;2.45;;;1.92;;
71759;SDS011;59919;48.112;16.280;2023-04-06T05:20:28;3.45;;;2.30;;
71759;SDS011;59919;48.112;16.280;2023-04-06T05:23:03;2.25;;;2.00;;
71759;SDS011;59919;48.112;16.280;2023-04-06T05:25:34;2.70;;;2.25;;
71759;SDS011;59919;48.112;16.280;2023-04-06T05:28:06;2.13;;;1.92;;
71759;SDS011;59919;48.112;16.280;2023-04-06T05:30:44;2.28;;;2.00;;
71759;SDS011;59919;48.112;16.280;2023-04-06T05:33:17;3.42;;;2.10;;
71759;SDS011;59919;48.112;16.280;2023-04-06T05:35:51;2.08;;;1.80;;
71759;SDS011;59919;48.112;16.280;2023-04-06T05:38:22;3.38;;;2.30;;
71759;SDS011;59919;48.112;16.280;2023-04-06T05:40:56;2.30;;;1.80;;
71759;SDS011;59919;48.112;16.280;2023-04-06T05:43:29;2.53;;;2.10;;
71759;SDS011;59919;48.112;16.280;2023-04-06T05:46:01;2.28;;;1.70;;
71759;SDS011;59919;48.112;16.280;2023-04-06T05:48:32;2.50;;;1.70;;
71759;SDS011;59919;48.112;16.280;2023-04-06T05:51:09;2.10;;;1.80;;
71759;SDS011;59919;48.112;16.280;2023-04-06T05:53:40;2.25;;;1.98;;
71759;SDS011;59919;48.112;16.280;2023-04-06T05:56:14;2.83;;;2.20;;
71759;SDS011;59919;48.112;16.280;2023-04-06T05:58:45;2.85;;;2.30;;
71759;SDS011;59919;48.112;16.280;2023-04-06T06:01:17;2.85;;;2.13;;
71759;SDS011;59919;48.112;16.280;2023-04-06T06:03:51;3.90;;;2.30;;
71759;SDS011;59919;48.112;16.280;2023-04-06T06:06:32;2.47;;;1.90;;
71759;SDS011;59919;48.112;16.280;2023-04-06T06:09:05;2.63;;;2.08;;
71759;SDS011;59919;48.112;16.280;2023-04-06T06:11:40;2.20;;;1.90;;
71759;SDS011;59919;48.112;16.280;2023-04-06T06:14:13;2.90;;;2.20;;
71759;SDS011;59919;48.112;16.280;2023-04-06T06:16:45;2.22;;;1.95;;
71759;SDS011;59919;48.112;16.280;2023-04-06T06:19:19;3.10;;;1.98;;
71759;SDS011;59919;48.112;16.280;2023-04-06T06:21:53;2.30;;;1.80;;
71759;SDS011;59919;48.112;16.280;2023-04-06T06:24:32;2.10;;;1.85;;
71759;SDS011;59919;48.112;16.280;2023-04-06T06:27:09;2.80;;;2.00;;
71759;SDS011;59919;48.112;16.280;2023-04-06T06:29:42;2.10;;;1.80;;
71759;SDS011;59919;48.112;16.280;2023-04-06T06:32:16;2.53;;;1.83;;
71759;SDS011;59919;48.112;16.280;2023-04-06T06:34:47;2.67;;;2.17;;
71759;SDS011;59919;48.112;16.280;2023-04-06T06:37:21;2.20;;;2.00;;
71759;SDS011;59919;48.112;16.280;2023-04-06T06:39:52;1.77;;;1.67;;
71759;SDS011;59919;48.112;16.280;2023-04-06T06:42:26;3.35;;;2.05;;
71759;SDS011;59919;48.112;16.280;2023-04-06T06:45:00;2.63;;;2.03;;
71759;SDS011;59919;48.112;16.280;2023-04-06T06:47:31;2.45;;;1.98;;
71759;SDS011;59919;48.112;16.280;2023-04-06T06:50:05;2.38;;;1.88;;
71759;SDS011;59919;48.112;16.280;2023-04-06T06:52:40;2.78;;;2.05;;
71759;SDS011;59919;48.112;16.280;2023-04-06T06:55:11;2.75;;;2.10;;
71759;SDS011;59919;48.112;16.280;2023-04-06T06:57:43;2.65;;;2.10;;
71759;SDS011;59919;48.112;16.280;2023-04-06T07:00:19;2.90;;;2.00;;
71759;SDS011;59919;48.112;16.280;2023-04-06T07:02:52;2.33;;;1.80;;
71759;SDS011;59919;48.112;16.280;2023-04-06T07:05:25;2.65;;;2.00;;
71759;SDS011;59919;48.112;16.280;2023-04-06T07:07:59;2.28;;;1.83;;
71759;SDS011;59919;48.112;16.280;2023-04-06T07:10:32;4.13;;;1.67;;
71759;SDS011;59919;48.112;16.280;2023-04-06T07:13:06;2.72;;;2.10;;
71759;SDS011;59919;48.112;16.280;2023-04-06T07:15:37;2.63;;;1.98;;
71759;SDS011;59919;48.112;16.280;2023-04-06T07:18:11;2.78;;;2.10;;
71759;SDS011;59919;48.112;16.280;2023-04-06T07:20:42;2.92;;;2.13;;
71759;SDS011;59919;48.112;16.280;2023-04-06T07:23:13;2.30;;;2.00;;
71759;SDS011;59919;48.112;16.280;2023-04-06T07:25:47;2.72;;;1.90;;
71759;SDS011;59919;48.112;16.280;2023-04-06T07:28:18;2.63;;;2.08;;
71759;SDS011;59919;48.112;16.280;2023-04-06T07:30:51;3.50;;;2.20;;
71759;SDS011;59919;48.112;16.280;2023-04-06T07:33:25;2.05;;;1.67;;
71759;SDS011;59919;48.112;16.280;2023-04-06T07:36:05;2.45;;;1.90;;
71759;SDS011;59919;48.112;16.280;2023-04-06T07:38:39;2.53;;;1.85;;
71759;SDS011;59919;48.112;16.280;2023-04-06T07:41:10;2.22;;;1.85;;
71759;SDS011;59919;48.112;16.280;2023-04-06T07:43:41;3.05;;;2.28;;
71759;SDS011;59919;48.112;16.280;2023-04-06T07:46:18;2.28;;;2.03;;
71759;SDS011;59919;48.112;16.280;2023-04-06T07:48:50;2.60;;;1.80;;
71759;SDS011;59919;48.112;16.280;2023-04-06T07:51:24;2.90;;;2.00;;
71759;SDS011;59919;48.112;16.280;2023-04-06T07:54:01;2.15;;;1.60;;
71759;SDS011;59919;48.112;16.280;2023-04-06T07:56:34;2.78;;;2.15;;
71759;SDS011;59919;48.112;16.280;2023-04-06T07:59:09;2.70;;;1.80;;
71759;SDS011;59919;48.112;16.280;2023-04-06T08:01:41;2.42;;;1.65;;
71759;SDS011;59919;48.112;16.280;2023-04-06T08:04:15;1.80;;;1.60;;
71759;SDS011;59919;48.112;16.280;2023-04-06T08:06:52;2.17;;;1.95;;
71759;SDS011;59919;48.112;16.280;2023-04-06T08:09:28;2.92;;;1.77;;
71759;SDS011;59919;48.112;16.280;2023-04-06T08:12:02;2.55;;;1.80;;
71759;SDS011;59919;48.112;16.280;2023-04-06T08:14:35;2.53;;;1.80;;
71759;SDS011;59919;48.112;16.280;2023-04-06T08:17:14;2.15;;;1.90;;
71759;SDS011;59919;48.112;16.280;2023-04-06T08:19:45;2.00;;;1.70;;
71759;SDS011;59919;48.112;16.280;2023-04-06T08:22:19;2.22;;;1.75;;
71759;SDS011;59919;48.112;16.280;2023-04-06T08:24:50;3.03;;;2.00;;
71759;SDS011;59919;48.112;16.280;2023-04-06T08:27:22;2.47;;;1.92;;
71759;SDS011;59919;48.112;16.280;2023-04-06T08:29:53;2.45;;;1.83;;
71759;SDS011;59919;48.112;16.280;2023-04-06T08:32:24;2.40;;;1.98;;
71759;SDS011;59919;48.112;16.280;2023-04-06T08:34:56;1.98;;;1.70;;
71759;SDS011;59919;48.112;16.280;2023-04-06T08:37:29;2.10;;;1.55;;
71759;SDS011;59919;48.112;16.280;2023-04-06T08:40:00;2.60;;;1.75;;
71759;SDS011;59919;48.112;16.280;2023-04-06T08:45:16;2.50;;;1.80;;
71759;SDS011;59919;48.112;16.280;2023-04-06T08:47:54;3.10;;;1.70;;
71759;SDS011;59919;48.112;16.280;2023-04-06T08:50:35;1.85;;;1.48;;
71759;SDS011;59919;48.112;16.280;2023-04-06T08:53:06;3.33;;;2.45;;
71759;SDS011;59919;48.112;16.280;2023-04-06T08:55:41;2.20;;;1.50;;
71759;SDS011;59919;48.112;16.280;2023-04-06T08:58:16;2.13;;;1.63;;
71759;SDS011;59919;48.112;16.280;2023-04-06T09:00:50;2.53;;;1.70;;
71759;SDS011;59919;48.112;16.280;2023-04-06T09:03:22;1.95;;;1.67;;
71759;SDS011;59919;48.112;16.280;2023-04-06T09:05:54;2.63;;;1.70;;
71759;SDS011;59919;48.112;16.280;2023-04-06T09:08:27;2.20;;;1.70;;
71759;SDS011;59919;48.112;16.280;2023-04-06T09:10:59;1.90;;;1.60;;
71759;SDS011;59919;48.112;16.280;2023-04-06T09:13:44;2.00;;;1.80;;
71759;SDS011;59919;48.112;16.280;2023-04-06T09:16:18;1.80;;;1.50;;
71759;SDS011;59919;48.112;16.280;2023-04-06T09:18:50;2.38;;;1.92;;
71759;SDS011;59919;48.112;16.280;2023-04-06T09:21:23;2.45;;;1.50;;
71759;SDS011;59919;48.112;16.280;2023-04-06T09:24:01;2.20;;;1.60;;
71759;SDS011;59919;48.112;16.280;2023-04-06T09:26:43;1.88;;;1.50;;
71759;SDS011;59919;48.112;16.280;2023-04-06T09:29:25;2.08;;;1.88;;
71759;SDS011;59919;48.112;16.280;2023-04-06T09:32:06;2.25;;;1.80;;
71759;SDS011;59919;48.112;16.280;2023-04-06T09:34:41;1.48;;;1.33;;
71759;SDS011;59919;48.112;16.280;2023-04-06T09:37:21;3.10;;;2.00;;
71759;SDS011;59919;48.112;16.280;2023-04-06T09:40:01;1.88;;;1.40;;
71759;SDS011;59919;48.112;16.280;2023-04-06T09:42:36;1.90;;;1.70;;
71759;SDS011;59919;48.112;16.280;2023-04-06T09:45:13;2.08;;;1.70;;
71759;SDS011;59919;48.112;16.280;2023-04-06T09:47:47;1.92;;;1.63;;
71759;SDS011;59919;48.112;16.280;2023-04-06T09:50:21;1.77;;;1.42;;
71759;SDS011;59919;48.112;16.280;2023-04-06T09:52:55;2.60;;;1.65;;
71759;SDS011;59919;48.112;16.280;2023-04-06T09:55:36;2.10;;;1.55;;
71759;SDS011;59919;48.112;16.280;2023-04-06T09:58:13;1.50;;;1.35;;
71759;SDS011;59919;48.112;16.280;2023-04-06T10:01:01;1.60;;;1.50;;
71759;SDS011;59919;48.112;16.280;2023-04-06T10:06:33;2.35;;;1.83;;
71759;SDS011;59919;48.112;16.280;2023-04-06T10:09:09;2.05;;;1.60;;
71759;SDS011;59919;48.112;16.280;2023-04-06T10:11:43;2.20;;;1.55;;
71759;SDS011;59919;48.112;16.280;2023-04-06T10:14:17;1.42;;;1.30;;
71759;SDS011;59919;48.112;16.280;2023-04-06T10:16:55;2.50;;;1.70;;
71759;SDS011;59919;48.112;16.280;2023-04-06T10:19:32;1.95;;;1.67;;
71759;SDS011;59919;48.112;16.280;2023-04-06T10:22:22;1.85;;;1.30;;
71759;SDS011;59919;48.112;16.280;2023-04-06T10:25:07;1.85;;;1.50;;
71759;SDS011;59919;48.112;16.280;2023-04-06T10:27:41;1.67;;;1.33;;
71759;SDS011;59919;48.112;16.280;2023-04-06T10:30:17;2.72;;;1.80;;
71759;SDS011;59919;48.112;16.280;2023-04-06T10:32:51;2.00;;;1.40;;
71759;SDS011;59919;48.112;16.280;2023-04-06T10:35:25;3.00;;;1.50;;
71759;SDS011;59919;48.112;16.280;2023-04-06T10:38:09;1.40;;;1.30;;
71759;SDS011;59919;48.112;16.280;2023-04-06T10:40:44;1.60;;;1.23;;
71759;SDS011;59919;48.112;16.280;2023-04-06T10:43:19;1.45;;;1.27;;
71759;SDS011;59919;48.112;16.280;2023-04-06T10:45:55;1.60;;;1.30;;
71759;SDS011;59919;48.112;16.280;2023-04-06T10:51:14;2.05;;;1.70;;
71759;SDS011;59919;48.112;16.280;2023-04-06T10:53:50;2.35;;;1.38;;
71759;SDS011;59919;48.112;16.280;2023-04-06T10:56:29;2.17;;;1.40;;
71759;SDS011;59919;48.112;16.280;2023-04-06T10:59:02;2.28;;;1.27;;
71759;SDS011;59919;48.112;16.280;2023-04-06T11:01:33;2.20;;;1.38;;
71759;SDS011;59919;48.112;16.280;2023-04-06T11:04:07;1.65;;;1.33;;
71759;SDS011;59919;48.112;16.280;2023-04-06T11:06:40;1.13;;;1.02;;
71759;SDS011;59919;48.112;16.280;2023-04-06T11:09:11;1.60;;;1.40;;
71759;SDS011;59919;48.112;16.280;2023-04-06T11:11:45;2.10;;;1.30;;
71759;SDS011;59919;48.112;16.280;2023-04-06T11:14:24;2.03;;;1.30;;
71759;SDS011;59919;48.112;16.280;2023-04-06T11:16:58;1.48;;;1.30;;
71759;SDS011;59919;48.112;16.280;2023-04-06T11:19:31;1.42;;;1.30;;
71759;SDS011;59919;48.112;16.280;2023-04-06T11:22:08;1.27;;;1.05;;
71759;SDS011;59919;48.112;16.280;2023-04-06T11:24:42;1.20;;;1.02;;
71759;SDS011;59919;48.112;16.280;2023-04-06T11:27:17;1.23;;;1.05;;
71759;SDS011;59919;48.112;16.280;2023-04-06T11:29:51;1.60;;;1.13;;
71759;SDS011;59919;48.112;16.280;2023-04-06T11:32:28;2.42;;;1.30;;
71759;SDS011;59919;48.112;16.280;2023-04-06T11:34:59;1.65;;;1.27;;
71759;SDS011;59919;48.112;16.280;2023-04-06T11:37:30;1.45;;;1.20;;
71759;SDS011;59919;48.112;16.280;2023-04-06T11:40:04;1.45;;;1.30;;
71759;SDS011;59919;48.112;16.280;2023-04-06T11:42:44;1.15;;;1.02;;
71759;SDS011;59919;48.112;16.280;2023-04-06T11:45:23;1.98;;;1.30;;
71759;SDS011;59919;48.112;16.280;2023-04-06T11:47:57;1.38;;;1.00;;
71759;SDS011;59919;48.112;16.280;2023-04-06T11:50:34;1.65;;;1.30;;
71759;SDS011;59919;48.112;16.280;2023-04-06T11:53:07;1.52;;;1.00;;
71759;SDS011;59919;48.112;16.280;2023-04-06T11:55:38;1.15;;;1.05;;
71759;SDS011;59919;48.112;16.280;2023-04-06T11:58:10;1.35;;;1.23;;
71759;SDS011;59919;48.112;16.280;2023-04-06T12:00:43;1.27;;;1.05;;
71759;SDS011;59919;48.112;16.280;2023-04-06T12:03:17;1.65;;;1.13;;
71759;SDS011;59919;48.112;16.280;2023-04-06T12:05:51;1.20;;;0.90;;
71759;SDS011;59919;48.112;16.280;2023-04-06T12:08:22;1.45;;;1.10;;
71759;SDS011;59919;48.112;16.280;2023-04-06T12:10:55;1.30;;;1.20;;
71759;SDS011;59919;48.112;16.280;2023-04-06T12:13:27;1.13;;;0.98;;
71759;SDS011;59919;48.112;16.280;2023-04-06T12:16:00;1.00;;;0.90;;
71759;SDS011;59919;48.112;16.280;2023-04-06T12:18:32;1.25;;;1.00;;
71759;SDS011;59919;48.112;16.280;2023-04-06T12:21:09;1.55;;;1.30;;
71759;SDS011;59919;48.112;16.280;2023-04-06T12:23:43;1.77;;;1.10;;
71759;SDS011;59919;48.112;16.280;2023-04-06T12:26:18;1.20;;;1.08;;
71759;SDS011;59919;48.112;16.280;2023-04-06T12:28:49;1.92;;;1.10;;
71759;SDS011;59919;48.112;16.280;2023-04-06T12:31:21;2.13;;;1.00;;
71759;SDS011;59919;48.112;16.280;2023-04-06T12:33:53;1.20;;;1.10;;
71759;SDS011;59919;48.112;16.280;2023-04-06T12:36:24;1.55;;;1.02;;
71759;SDS011;59919;48.112;16.280;2023-04-06T12:38:59;1.75;;;1.20;;
71759;SDS011;59919;48.112;16.280;2023-04-06T12:41:35;1.33;;;1.08;;
71759;SDS011;59919;48.112;16.280;2023-04-06T12:44:06;1.30;;;1.00;;
71759;SDS011;59919;48.112;16.280;2023-04-06T12:46:39;0.95;;;0.85;;
71759;SDS011;59919;48.112;16.280;2023-04-06T12:49:16;1.23;;;0.85;;
71759;SDS011;59919;48.112;16.280;2023-04-06T12:51:49;1.27;;;1.10;;
71759;SDS011;59919;48.112;16.280;2023-04-06T12:54:20;1.48;;;1.38;;
71759;SDS011;59919;48.112;16.280;2023-04-06T12:56:52;1.27;;;1.10;;
71759;SDS011;59919;48.112;16.280;2023-04-06T12:59:26;1.58;;;1.10;;
71759;SDS011;59919;48.112;16.280;2023-04-06T13:02:00;1.00;;;0.90;;
71759;SDS011;59919;48.112;16.280;2023-04-06T13:04:32;1.33;;;1.17;;
71759;SDS011;59919;48.112;16.280;2023-04-06T13:07:03;1.25;;;1.15;;
71759;SDS011;59919;48.112;16.280;2023-04-06T13:09:34;1.00;;;0.90;;
71759;SDS011;59919;48.112;16.280;2023-04-06T13:12:05;1.35;;;1.00;;
71759;SDS011;59919;48.112;16.280;2023-04-06T13:14:37;1.08;;;0.88;;
71759;SDS011;59919;48.112;16.280;2023-04-06T13:17:11;1.00;;;0.90;;
71759;SDS011;59919;48.112;16.280;2023-04-06T13:19:42;1.38;;;1.13;;
71759;SDS011;59919;48.112;16.280;2023-04-06T13:22:18;1.17;;;1.08;;
71759;SDS011;59919;48.112;16.280;2023-04-06T13:24:54;1.30;;;1.15;;
71759;SDS011;59919;48.112;16.280;2023-04-06T13:27:26;1.10;;;1.00;;
71759;SDS011;59919;48.112;16.280;2023-04-06T13:30:04;1.00;;;0.90;;
71759;SDS011;59919;48.112;16.280;2023-04-06T13:32:36;1.55;;;1.10;;
71759;SDS011;59919;48.112;16.280;2023-04-06T13:35:10;1.13;;;0.95;;
71759;SDS011;59919;48.112;16.280;2023-04-06T13:40:24;1.27;;;0.90;;
71759;SDS011;59919;48.112;16.280;2023-04-06T13:42:55;0.80;;;0.80;;
71759;SDS011;59919;48.112;16.280;2023-04-06T13:45:29;1.20;;;1.00;;
71759;SDS011;59919;48.112;16.280;2023-04-06T13:48:03;1.13;;;1.00;;
71759;SDS011;59919;48.112;16.280;2023-04-06T13:50:34;1.30;;;1.10;;
71759;SDS011;59919;48.112;16.280;2023-04-06T13:53:08;0.88;;;0.75;;
71759;SDS011;59919;48.112;16.280;2023-04-06T13:55:41;1.10;;;0.85;;
71759;SDS011;59919;48.112;16.280;2023-04-06T13:58:12;0.98;;;0.90;;
71759;SDS011;59919;48.112;16.280;2023-04-06T14:00:43;1.13;;;1.02;;
71759;SDS011;59919;48.112;16.280;2023-04-06T14:03:15;1.55;;;1.10;;
71759;SDS011;59919;48.112;16.280;2023-04-06T14:05:46;0.85;;;0.80;;
71759;SDS011;59919;48.112;16.280;2023-04-06T14:08:17;1.10;;;0.93;;
71759;SDS011;59919;48.112;16.280;2023-04-06T14:10:49;1.70;;;1.00;;
71759;SDS011;59919;48.112;16.280;2023-04-06T14:13:28;1.23;;;0.90;;
71759;SDS011;59919;48.112;16.280;2023-04-06T14:15:59;1.13;;;0.90;;
71759;SDS011;59919;48.112;16.280;2023-04-06T14:18:33;1.00;;;0.90;;
71759;SDS011;59919;48.112;16.280;2023-04-06T14:21:04;1.20;;;0.93;;
71759;SDS011;59919;48.112;16.280;2023-04-06T14:23:38;1.10;;;1.00;;
71759;SDS011;59919;48.112;16.280;2023-04-06T14:26:15;1.20;;;1.10;;
71759;SDS011;59919;48.112;16.280;2023-04-06T14:31:23;1.58;;;0.98;;
71759;SDS011;59919;48.112;16.280;2023-04-06T14:33:57;1.20;;;1.00;;
71759;SDS011;59919;48.112;16.280;2023-04-06T14:36:32;1.20;;;1.05;;
71759;SDS011;59919;48.112;16.280;2023-04-06T14:39:11;1.30;;;1.20;;
71759;SDS011;59919;48.112;16.280;2023-04-06T14:41:45;1.38;;;0.90;;
71759;SDS011;59919;48.112;16.280;2023-04-06T14:44:18;1.05;;;0.80;;
71759;SDS011;59919;48.112;16.280;2023-04-06T14:46:49;1.85;;;1.10;;
71759;SDS011;59919;48.112;16.280;2023-04-06T14:49:23;1.23;;;1.13;;
71759;SDS011;59919;48.112;16.280;2023-04-06T14:51:57;1.30;;;1.20;;
71759;SDS011;59919;48.112;16.280;2023-04-06T14:54:29;1.38;;;1.13;;
71759;SDS011;59919;48.112;16.280;2023-04-06T14:57:05;1.20;;;1.10;;
71759;SDS011;59919;48.112;16.280;2023-04-06T14:59:39;1.38;;;1.08;;
71759;SDS011;59919;48.112;16.280;2023-04-06T15:02:15;1.08;;;0.93;;
71759;SDS011;59919;48.112;16.280;2023-04-06T15:04:47;1.27;;;1.10;;
71759;SDS011;59919;48.112;16.280;2023-04-06T15:07:18;1.30;;;1.00;;
71759;SDS011;59919;48.112;16.280;2023-04-06T15:09:49;1.70;;;1.40;;
71759;SDS011;59919;48.112;16.280;2023-04-06T15:12:20;2.05;;;1.17;;
71759;SDS011;59919;48.112;16.280;2023-04-06T15:14:51;0.95;;;0.85;;
71759;SDS011;59919;48.112;16.280;2023-04-06T15:17:33;1.05;;;0.93;;
71759;SDS011;59919;48.112;16.280;2023-04-06T15:20:05;1.23;;;1.00;;
71759;SDS011;59919;48.112;16.280;2023-04-06T15:22:36;1.15;;;1.05;;
71759;SDS011;59919;48.112;16.280;2023-04-06T15:25:15;0.85;;;0.85;;